Time;durP1;ratioP1;P1;durP2;ratioP2;P2;SDS_P1;SDS_P2;PMS_P1;PMS_P2;Temp;Humidity;BMP_temperature;BMP_pressure;BME280_temperature;BME280_humidity;BME280_pressure;Samples;Min_cycle;Max_cycle;Signal;HPM_P1;HPM_P2
2023/09/06 04:02:13;;;;;;;0.70;0.20;;;19.40;99.90;;;;;;5072181;23;20491;-67
2023/09/06 04:04:41;;;;;;;0.60;0.20;;;19.50;99.90;;;;;;4897876;29;20455;-69
2023/09/06 04:07:10;;;;;;;0.60;0.20;;;19.60;99.90;;;;;;4900175;29;20472;-67
2023/09/06 04:09:38;;;;;;;0.60;0.20;;;19.60;99.90;;;;;;4892912;29;20537;-67
2023/09/06 04:12:06;;;;;;;0.60;0.20;;;19.50;99.80;;;;;;4900399;29;20491;-68
2023/09/06 04:14:35;;;;;;;0.60;0.10;;;19.50;98.70;;;;;;4900257;29;20452;-68
2023/09/06 04:17:06;;;;;;;0.60;0.10;;;19.40;99.90;;;;;;4899976;29;20456;-67
2023/09/06 04:19:35;;;;;;;0.60;0.10;;;19.40;99.90;;;;;;4899468;29;20516;-68
2023/09/06 04:22:04;;;;;;;0.60;0.20;;;19.50;99.90;;;;;;4898423;29;20542;-67
2023/09/06 04:24:33;;;;;;;0.60;0.20;;;19.60;99.90;;;;;;4898407;29;20503;-67
2023/09/06 04:27:02;;;;;;;0.60;0.10;;;19.70;99.90;;;;;;4898538;29;20460;-67
2023/09/06 04:29:31;;;;;;;0.60;0.10;;;19.70;99.90;;;;;;4898949;29;20499;-68
2023/09/06 04:31:59;;;;;;;0.60;0.10;;;19.60;99.00;;;;;;4894907;29;20549;-68
2023/09/06 04:34:27;;;;;;;0.60;0.20;;;19.50;97.60;;;;;;4890078;29;20496;-67
2023/09/06 04:36:56;;;;;;;0.60;0.10;;;19.50;98.00;;;;;;4896261;29;20477;-67
2023/09/06 04:39:28;;;;;;;0.60;0.20;;;19.40;99.90;;;;;;4896656;29;20468;-68
2023/09/06 04:41:59;;;;;;;0.60;0.20;;;19.30;99.90;;;;;;4898860;29;20524;-66
2023/09/06 04:44:27;;;;;;;0.60;0.10;;;;;;;;;;4897549;29;20487;-69
2023/09/06 04:46:55;;;;;;;0.60;0.10;;;19.20;99.90;;;;;;4898943;29;20517;-67
2023/09/06 04:49:23;;;;;;;0.60;0.10;;;18.90;99.90;;;;;;4898931;29;20457;-68
2023/09/06 04:51:52;;;;;;;0.60;0.20;;;18.80;99.90;;;;;;4898917;29;20513;-68
2023/09/06 04:54:22;;;;;;;0.60;0.10;;;18.80;99.90;;;;;;4898517;29;20485;-67
2023/09/06 04:56:49;;;;;;;0.60;0.20;;;18.60;99.90;;;;;;4897624;29;20541;-67
2023/09/06 04:59:17;;;;;;;1.73;0.90;;;18.70;99.90;;;;;;4896822;29;20555;-67
2023/09/06 05:01:45;;;;;;;2.03;0.87;;;18.70;99.90;;;;;;4896950;29;21005;-70
2023/09/06 05:04:13;;;;;;;0.70;0.33;;;18.70;99.90;;;;;;4897043;29;20964;-66
2023/09/06 05:06:41;;;;;;;0.60;0.20;;;21.10;99.90;;;;;;4896766;29;20464;-67
2023/09/06 05:09:10;;;;;;;0.60;0.20;;;21.80;99.90;;;;;;4896073;29;20957;-68
2023/09/06 05:11:39;;;;;;;0.80;0.43;;;18.70;99.90;;;;;;4896167;29;20548;-66
2023/09/06 05:14:07;;;;;;;0.60;0.10;;;18.70;99.90;;;;;;4896545;29;20568;-68
2023/09/06 05:16:35;;;;;;;0.60;0.17;;;18.00;99.90;;;;;;4896274;29;20491;-67
2023/09/06 05:19:03;;;;;;;0.60;0.10;;;18.90;99.90;;;;;;4896164;29;20455;-68
2023/09/06 05:21:31;;;;;;;0.60;0.20;;;18.90;99.90;;;;;;4895816;29;20476;-70
2023/09/06 05:23:59;;;;;;;0.60;0.20;;;19.00;99.90;;;;;;4896803;29;20458;-69
2023/09/06 05:26:28;;;;;;;0.60;0.20;;;18.90;99.90;;;;;;4896717;29;20455;-68
2023/09/06 05:28:57;;;;;;;0.73;0.40;;;18.90;99.90;;;;;;4896153;29;20451;-67
2023/09/06 05:31:25;;;;;;;0.60;0.10;;;19.00;99.90;;;;;;4895770;29;21038;-67
2023/09/06 05:33:53;;;;;;;0.60;0.20;;;19.00;99.90;;;;;;4895274;29;20496;-68
2023/09/06 05:36:22;;;;;;;1.07;0.47;;;18.90;99.90;;;;;;4895995;29;20497;-67
2023/09/06 05:38:50;;;;;;;0.60;0.10;;;18.80;99.90;;;;;;4890987;29;20480;-67
2023/09/06 05:41:18;;;;;;;0.60;0.13;;;19.00;99.90;;;;;;4893396;29;20479;-67
2023/09/06 05:43:47;;;;;;;0.60;0.10;;;19.00;99.90;;;;;;4895964;29;20462;-68
2023/09/06 05:46:16;;;;;;;0.60;0.10;;;19.10;99.90;;;;;;4896763;29;20437;-69
2023/09/06 05:49:00;;;;;;;0.60;0.20;;;19.10;99.90;;;;;;4891915;29;20831;-67
2023/09/06 05:51:28;;;;;;;0.60;0.30;;;19.20;99.90;;;;;;4891605;29;20578;-70
2023/09/06 05:53:56;;;;;;;0.60;0.20;;;19.30;99.90;;;;;;4896103;29;20515;-68
2023/09/06 05:56:24;;;;;;;0.60;0.10;;;19.50;99.90;;;;;;4896956;29;20535;-69
2023/09/06 05:58:51;;;;;;;0.60;0.10;;;19.60;99.90;;;;;;4895031;29;20562;-70
2023/09/06 06:01:21;;;;;;;0.60;0.20;;;19.70;99.90;;;;;;4897014;29;20490;-70
2023/09/06 06:03:49;;;;;;;0.60;0.10;;;19.70;99.90;;;;;;4898439;29;20449;-69
2023/09/06 06:06:19;;;;;;;0.60;0.10;;;;;;;;;;4898295;29;20453;-69
2023/09/06 06:08:47;;;;;;;0.60;0.10;;;19.70;99.90;;;;;;4897855;29;20478;-67
2023/09/06 06:11:15;;;;;;;0.60;0.10;;;19.80;99.90;;;;;;4893546;29;20502;-67
2023/09/06 06:13:43;;;;;;;0.60;0.10;;;19.80;99.90;;;;;;4894618;29;20548;-67
2023/09/06 06:16:21;;;;;;;0.70;0.30;;;19.90;99.90;;;;;;4895271;29;20510;-66
2023/09/06 06:18:49;;;;;;;0.60;0.20;;;19.90;99.90;;;;;;4893400;29;20459;-71
2023/09/06 06:21:17;;;;;;;0.60;0.10;;;19.80;98.80;;;;;;4900485;29;20559;-71
2023/09/06 06:23:47;;;;;;;0.60;0.20;;;19.90;99.90;;;;;;4897419;29;20447;-72
2023/09/06 06:26:19;;;;;;;0.70;0.40;;;19.90;99.90;;;;;;4899510;29;20455;-69
2023/09/06 06:28:49;;;;;;;0.60;0.10;;;19.90;99.00;;;;;;4899081;29;20935;-70
2023/09/06 06:31:17;;;;;;;0.60;0.20;;;19.90;96.50;;;;;;4898858;29;20474;-71
2023/09/06 06:33:47;;;;;;;1.53;0.37;;;19.90;98.80;;;;;;4882334;29;20492;-71
2023/09/06 06:36:15;;;;;;;0.63;0.30;;;19.90;97.80;;;;;;4895676;29;20537;-69
2023/09/06 06:38:46;;;;;;;1.30;1.20;;;20.10;98.60;;;;;;4899754;29;20516;-69
2023/09/06 06:41:19;;;;;;;0.70;0.30;;;20.10;99.60;;;;;;4898246;29;20479;-70
2023/09/06 06:43:47;;;;;;;0.60;0.10;;;20.10;98.50;;;;;;4898720;29;20452;-67
2023/09/06 06:46:26;;;;;;;0.60;0.30;;;20.20;99.30;;;;;;4891185;29;20480;-70
2023/09/06 06:48:57;;;;;;;0.80;0.57;;;20.40;97.40;;;;;;4892153;29;20481;-69
2023/09/06 06:51:26;;;;;;;0.60;0.10;;;20.40;97.00;;;;;;4900627;29;20477;-69
2023/09/06 06:53:54;;;;;;;1.60;1.50;;;20.40;95.50;;;;;;4899147;29;20500;-69
2023/09/06 06:56:22;;;;;;;0.60;0.10;;;20.40;94.60;;;;;;4898223;29;20464;-70
2023/09/06 06:58:50;;;;;;;0.60;0.10;;;;;;;;;;4895690;29;20472;-70
2023/09/06 07:01:19;;;;;;;0.60;0.10;;;20.40;93.40;;;;;;4900886;29;20484;-67
2023/09/06 07:03:47;;;;;;;0.60;0.20;;;20.40;91.00;;;;;;4902839;29;20456;-72
2023/09/06 07:06:17;;;;;;;0.60;0.10;;;20.40;91.70;;;;;;4903708;29;20559;-69
2023/09/06 07:08:45;;;;;;;0.60;0.10;;;20.50;92.30;;;;;;4903652;29;20463;-68
2023/09/06 07:11:14;;;;;;;0.60;0.17;;;20.50;92.40;;;;;;4900153;29;20484;-68
2023/09/06 07:13:42;;;;;;;0.60;0.10;;;20.50;91.50;;;;;;4899461;29;20457;-69
2023/09/06 07:16:10;;;;;;;0.60;0.20;;;20.40;86.50;;;;;;4900147;29;20512;-73
2023/09/06 07:18:38;;;;;;;0.80;0.20;;;20.40;87.60;;;;;;4892567;29;20468;-75
2023/09/06 07:21:07;;;;;;;0.80;0.77;;;;;;;;;;4898071;29;21037;-73
2023/09/06 07:23:36;;;;;;;0.60;0.30;;;20.50;90.90;;;;;;4898322;29;20568;-71
2023/09/06 07:26:05;;;;;;;0.70;0.20;;;20.60;89.40;;;;;;4898537;29;20458;-73
2023/09/06 07:28:39;;;;;;;0.60;0.10;;;20.60;86.50;;;;;;4898711;29;20452;-74
2023/09/06 07:31:08;;;;;;;0.60;0.20;;;20.60;88.10;;;;;;4897867;29;20567;-73
2023/09/06 07:33:37;;;;;;;0.60;0.20;;;20.60;82.90;;;;;;4897638;29;20889;-74
2023/09/06 07:36:05;;;;;;;1.40;0.97;;;20.50;80.20;;;;;;4897845;29;20877;-73
2023/09/06 07:38:33;;;;;;;0.60;0.20;;;20.50;83.60;;;;;;4897931;29;20534;-71
2023/09/06 07:41:04;;;;;;;1.10;0.93;;;20.60;82.20;;;;;;4897558;29;20566;-72
2023/09/06 07:43:35;;;;;;;0.60;0.10;;;20.60;80.90;;;;;;4898866;29;20455;-74
2023/09/06 07:46:04;;;;;;;0.70;0.40;;;20.70;81.90;;;;;;4897638;29;20559;-72
2023/09/06 07:48:33;;;;;;;0.60;0.10;;;20.60;83.00;;;;;;4897792;29;20456;-74
2023/09/06 07:51:04;;;;;;;1.47;0.60;;;20.70;82.60;;;;;;4894984;29;20516;-72
2023/09/06 07:53:33;;;;;;;6.93;0.40;;;20.70;84.60;;;;;;4894276;29;20465;-70
2023/09/06 07:56:05;;;;;;;0.60;0.10;;;20.70;84.70;;;;;;4896109;29;20860;-71
2023/09/06 07:58:34;;;;;;;0.60;0.10;;;;;;;;;;4892384;29;20478;-73
2023/09/06 08:01:04;;;;;;;0.60;0.10;;;20.80;85.00;;;;;;4879030;29;20521;-72
2023/09/06 08:03:45;;;;;;;0.60;0.20;;;21.00;86.20;;;;;;4878174;29;20457;-73
2023/09/06 08:06:14;;;;;;;0.60;0.10;;;;;;;;;;4896172;29;20458;-72
2023/09/06 08:08:43;;;;;;;0.60;0.20;;;;;;;;;;4896925;29;20456;-73
2023/09/06 08:11:12;;;;;;;0.60;0.20;;;21.20;79.40;;;;;;4896685;29;20898;-73
2023/09/06 08:13:41;;;;;;;0.60;0.10;;;21.20;79.80;;;;;;4892348;29;20469;-70
2023/09/06 08:16:10;;;;;;;0.60;0.10;;;21.20;80.00;;;;;;4895989;29;20488;-70
2023/09/06 08:18:40;;;;;;;1.87;1.37;;;;;;;;;;4896068;29;21019;-72
2023/09/06 08:21:09;;;;;;;0.60;0.10;;;21.40;77.20;;;;;;4896193;29;20870;-71
2023/09/06 08:23:37;;;;;;;0.60;0.17;;;21.40;75.20;;;;;;4896023;29;20503;-69
2023/09/06 08:26:05;;;;;;;0.60;0.10;;;21.50;78.30;;;;;;4896046;29;20465;-71
2023/09/06 08:28:35;;;;;;;0.60;0.10;;;21.60;73.80;;;;;;4896519;29;20460;-70
2023/09/06 08:31:04;;;;;;;0.60;0.10;;;21.60;74.00;;;;;;4896792;29;20476;-69
2023/09/06 08:33:33;;;;;;;0.60;0.20;;;21.70;77.00;;;;;;4896546;29;20462;-70
2023/09/06 08:36:01;;;;;;;0.60;0.10;;;21.80;71.90;;;;;;4897044;29;20858;-70
2023/09/06 08:38:29;;;;;;;0.60;0.10;;;21.70;64.80;;;;;;4897167;29;20465;-71
2023/09/06 08:40:58;;;;;;;0.60;0.20;;;21.80;55.40;;;;;;4896877;29;20570;-72
2023/09/06 08:43:29;;;;;;;0.60;0.10;;;21.80;52.30;;;;;;4893042;29;20544;-70
2023/09/06 08:46:00;;;;;;;0.60;0.10;;;21.90;51.30;;;;;;4892646;29;21034;-70
2023/09/06 08:48:29;;;;;;;0.60;0.10;;;22.00;53.90;;;;;;4893912;29;20472;-72
2023/09/06 08:50:58;;;;;;;0.60;0.20;;;22.00;54.90;;;;;;4896262;29;20528;-72
2023/09/06 08:53:28;;;;;;;0.60;0.10;;;22.10;51.70;;;;;;4896358;29;20451;-70
2023/09/06 08:55:56;;;;;;;0.60;0.10;;;22.10;47.80;;;;;;4887190;29;20552;-70
2023/09/06 08:58:24;;;;;;;0.60;0.10;;;22.20;41.30;;;;;;4892739;29;20452;-71
2023/09/06 09:00:52;;;;;;;0.60;0.10;;;22.30;43.10;;;;;;4886041;29;20519;-71
2023/09/06 09:03:22;;;;;;;0.60;0.10;;;22.40;43.60;;;;;;4891658;29;20456;-74
2023/09/06 09:05:50;;;;;;;0.60;0.20;;;22.40;39.60;;;;;;4893481;29;20540;-72
2023/09/06 09:08:18;;;;;;;0.60;0.10;;;22.40;39.60;;;;;;4887974;29;20552;-71
2023/09/06 09:10:46;;;;;;;0.60;0.10;;;22.50;40.90;;;;;;4893023;29;20505;-71
2023/09/06 09:13:14;;;;;;;0.60;0.10;;;22.60;41.60;;;;;;4892699;29;20512;-70
2023/09/06 09:15:42;;;;;;;0.90;0.60;;;22.60;39.80;;;;;;4895447;29;20485;-71
2023/09/06 09:18:11;;;;;;;0.90;0.73;;;22.70;38.50;;;;;;4895523;29;20967;-71
2023/09/06 09:20:41;;;;;;;0.60;0.10;;;22.70;37.50;;;;;;4894944;29;20492;-72
2023/09/06 09:23:12;;;;;;;0.70;0.30;;;22.70;39.30;;;;;;4894610;29;20980;-71
2023/09/06 09:25:47;;;;;;;0.70;0.20;;;22.80;33.50;;;;;;4895366;29;20445;-72
2023/09/06 09:28:15;;;;;;;0.60;0.10;;;22.90;33.10;;;;;;4896197;29;20528;-72
2023/09/06 09:30:43;;;;;;;0.60;0.20;;;23.00;33.30;;;;;;4894586;29;20512;-70
2023/09/06 09:33:12;;;;;;;0.67;0.17;;;;;;;;;;4892275;29;20456;-71
2023/09/06 09:35:41;;;;;;;1.73;1.50;;;23.10;30.00;;;;;;4894693;29;20488;-70
2023/09/06 09:38:11;;;;;;;0.70;0.20;;;23.10;30.00;;;;;;4895575;29;20453;-71
2023/09/06 09:40:39;;;;;;;0.80;0.57;;;23.20;29.40;;;;;;4894860;29;20501;-71
2023/09/06 09:43:10;;;;;;;0.60;0.20;;;23.20;27.50;;;;;;4894101;29;20547;-70
2023/09/06 09:45:43;;;;;;;2.33;1.90;;;23.20;26.80;;;;;;4894629;29;20485;-72
2023/09/06 09:48:12;;;;;;;0.60;0.10;;;;;;;;;;4895999;29;20445;-72
2023/09/06 09:50:44;;;;;;;0.70;0.20;;;23.30;28.80;;;;;;4896605;29;20477;-71
2023/09/06 09:53:19;;;;;;;1.27;1.17;;;23.40;27.80;;;;;;4896150;29;20464;-71
2023/09/06 09:55:51;;;;;;;0.60;0.20;;;23.40;28.40;;;;;;4897560;29;20489;-70
2023/09/06 09:58:20;;;;;;;0.70;0.20;;;23.60;28.50;;;;;;4898302;29;20460;-73
2023/09/06 10:00:50;;;;;;;1.10;0.60;;;23.60;27.60;;;;;;4897551;29;20493;-72
2023/09/06 10:03:19;;;;;;;0.70;0.20;;;23.70;28.00;;;;;;4896182;29;20536;-71
2023/09/06 10:05:49;;;;;;;0.70;0.20;;;23.80;28.00;;;;;;4895835;29;20450;-73
2023/09/06 10:08:19;;;;;;;2.53;1.23;;;23.80;25.30;;;;;;4896089;29;20460;-70
2023/09/06 10:10:47;;;;;;;1.17;0.77;;;23.90;23.60;;;;;;4894657;29;20481;-72
2023/09/06 10:13:15;;;;;;;1.27;0.67;;;23.90;21.20;;;;;;4895977;29;20488;-70
2023/09/06 10:15:45;;;;;;;0.70;0.20;;;24.00;21.40;;;;;;4895344;29;20973;-69
2023/09/06 10:18:13;;;;;;;0.70;0.10;;;24.10;22.40;;;;;;4896425;29;20527;-70
2023/09/06 10:20:43;;;;;;;1.47;0.87;;;24.10;21.70;;;;;;4895851;29;20481;-69
2023/09/06 10:23:12;;;;;;;0.70;0.17;;;25.00;22.10;;;;;;4894841;29;20534;-69
2023/09/06 10:25:43;;;;;;;0.80;0.50;;;24.30;20.80;;;;;;4894847;29;20446;-70
2023/09/06 10:28:14;;;;;;;0.80;0.60;;;24.30;20.30;;;;;;4895086;29;20461;-70
2023/09/06 10:30:45;;;;;;;1.50;0.60;;;24.40;20.20;;;;;;4894709;29;20485;-70
2023/09/06 10:33:47;;;;;;;1.00;0.43;;;24.40;19.00;;;;;;4896422;29;20453;-69
2023/09/06 10:36:17;;;;;;;0.70;0.10;;;24.40;28.00;;;;;;4898581;29;20812;-70
2023/09/06 10:39:21;;;;;;;1.43;1.33;;;24.60;21.20;;;;;;4898381;29;20459;-69
2023/09/06 10:42:28;;;;;;;0.70;0.20;;;24.70;21.50;;;;;;4897440;29;20495;-70
2023/09/06 10:45:12;;;;;;;0.70;0.10;;;24.70;17.70;;;;;;4897180;29;20453;-70
2023/09/06 10:47:41;;;;;;;0.70;0.23;;;24.80;16.50;;;;;;4898032;29;20481;-69
2023/09/06 10:50:21;;;;;;;0.70;0.20;;;24.90;17.80;;;;;;4898802;29;20441;-69
2023/09/06 10:52:53;;;;;;;0.70;0.20;;;25.00;17.80;;;;;;4898639;29;20523;-71
2023/09/06 10:55:24;;;;;;;0.80;0.40;;;25.10;12.80;;;;;;4898415;29;20529;-71
2023/09/06 10:58:08;;;;;;;0.80;0.40;;;25.10;12.20;;;;;;4897662;29;21020;-71
2023/09/06 11:00:36;;;;;;;0.70;0.30;;;;;;;;;;4897612;29;20487;-72
2023/09/06 11:03:21;;;;;;;0.70;0.10;;;25.20;15.50;;;;;;4897910;29;20538;-72
2023/09/06 11:05:54;;;;;;;0.70;0.10;;;25.10;15.80;;;;;;4897747;29;20460;-71
2023/09/06 11:08:29;;;;;;;0.70;0.20;;;25.30;12.90;;;;;;4897916;29;20552;-72
2023/09/06 11:11:09;;;;;;;0.90;0.40;;;25.30;12.30;;;;;;4896093;29;21005;-71
2023/09/06 11:13:38;;;;;;;0.90;0.80;;;25.40;13.30;;;;;;4894814;29;20796;-72
2023/09/06 11:16:12;;;;;;;0.70;0.17;;;25.40;11.60;;;;;;4898062;29;20465;-72
2023/09/06 11:18:44;;;;;;;0.70;0.10;;;25.40;20.70;;;;;;4898015;29;20454;-71
2023/09/06 11:21:17;;;;;;;0.80;0.40;;;25.60;10.80;;;;;;4897784;29;21012;-72
2023/09/06 11:23:46;;;;;;;0.90;0.50;;;25.60;10.10;;;;;;4897034;29;20861;-72
2023/09/06 11:26:16;;;;;;;0.70;0.30;;;25.70;10.70;;;;;;4890311;29;20552;-72
2023/09/06 11:28:44;;;;;;;0.70;0.10;;;25.80;12.20;;;;;;4896774;29;20454;-72
2023/09/06 11:31:23;;;;;;;0.97;0.87;;;25.80;12.60;;;;;;4895312;29;20489;-72
2023/09/06 11:33:55;;;;;;;0.70;0.10;;;25.80;12.10;;;;;;4896361;29;20917;-72
2023/09/06 11:36:30;;;;;;;0.70;0.10;;;26.10;11.70;;;;;;4896196;29;21045;-72
2023/09/06 11:39:05;;;;;;;0.70;0.10;;;26.10;20.30;;;;;;4896106;29;20461;-72
2023/09/06 11:41:37;;;;;;;0.70;0.10;;;26.20;11.30;;;;;;4894384;29;20487;-72
2023/09/06 11:44:09;;;;;;;0.70;0.17;;;28.70;10.50;;;;;;4888246;29;20519;-71
2023/09/06 11:46:41;;;;;;;0.70;0.10;;;26.30;9.70;;;;;;4897131;29;20865;-72
2023/09/06 11:49:10;;;;;;;0.70;0.10;;;26.20;8.30;;;;;;4897287;29;20448;-71
2023/09/06 11:51:41;;;;;;;0.70;0.13;;;;;;;;;;4891544;29;20902;-73
2023/09/06 11:54:09;;;;;;;1.10;0.60;;;26.30;9.60;;;;;;4896057;29;20461;-73
2023/09/06 11:56:42;;;;;;;0.80;0.47;;;26.20;6.10;;;;;;4894449;29;20493;-72
2023/09/06 11:59:12;;;;;;;0.70;0.27;;;26.20;13.80;;;;;;4896685;29;20516;-72
2023/09/06 12:01:43;;;;;;;0.70;0.20;;;26.30;6.30;;;;;;4895659;29;20686;-71
2023/09/06 12:04:15;;;;;;;14.80;1.73;;;26.40;5.70;;;;;;4893088;29;20461;-72
2023/09/06 12:06:44;;;;;;;1.23;1.13;;;26.50;7.70;;;;;;4898071;29;20969;-71
2023/09/06 12:09:13;;;;;;;0.80;0.60;;;26.50;6.20;;;;;;4896723;29;20541;-71
2023/09/06 12:11:42;;;;;;;0.80;0.40;;;26.50;5.80;;;;;;4896648;29;21027;-71
2023/09/06 12:14:10;;;;;;;0.70;0.10;;;26.60;5.60;;;;;;4896438;29;20454;-71
2023/09/06 12:16:39;;;;;;;0.70;0.20;;;26.60;6.70;;;;;;4897164;29;20915;-71
2023/09/06 12:19:11;;;;;;;0.70;0.20;;;26.60;5.10;;;;;;4897087;29;21316;-71
2023/09/06 12:21:39;;;;;;;0.70;0.20;;;26.60;4.20;;;;;;4889923;29;20618;-72
2023/09/06 12:24:08;;;;;;;0.70;0.13;;;26.60;12.80;;;;;;4895469;29;20458;-71
2023/09/06 12:26:37;;;;;;;0.70;0.20;;;26.70;4.20;;;;;;4896431;29;20454;-74
2023/09/06 12:29:07;;;;;;;0.70;0.10;;;;;;;;;;4889168;29;20517;-72
2023/09/06 12:31:35;;;;;;;0.70;0.20;;;26.90;4.20;;;;;;4891624;29;20994;-73
2023/09/06 12:34:04;;;;;;;0.80;0.57;;;26.90;12.50;;;;;;4897621;29;20481;-73
2023/09/06 12:36:32;;;;;;;0.70;0.13;;;26.90;4.30;;;;;;4896077;29;20996;-72
2023/09/06 12:39:00;;;;;;;0.70;0.10;;;27.00;4.40;;;;;;4898681;29;20534;-75
2023/09/06 12:41:28;;;;;;;0.70;0.20;;;;;;;;;;4896231;29;20531;-74
2023/09/06 12:43:56;;;;;;;0.70;0.10;;;;;;;;;;4897571;29;20831;-74
2023/09/06 12:46:26;;;;;;;0.70;0.20;;;27.00;5.70;;;;;;4897132;29;20597;-72
2023/09/06 12:48:54;;;;;;;0.70;0.20;;;27.10;4.40;;;;;;4896468;29;20446;-72
2023/09/06 12:51:22;;;;;;;3.77;0.77;;;27.10;2.00;;;;;;4892557;29;20547;-69
2023/09/06 12:53:50;;;;;;;0.70;0.10;;;27.20;3.50;;;;;;4896417;29;20451;-70
2023/09/06 12:56:18;;;;;;;0.70;0.20;;;27.30;3.60;;;;;;4896315;29;20451;-70
2023/09/06 12:58:47;;;;;;;0.70;0.20;;;27.30;3.40;;;;;;4899674;29;20485;-71
2023/09/06 13:01:14;;;;;;;3.57;0.83;;;27.30;1.00;;;;;;4899950;29;20485;-72
2023/09/06 13:03:45;;;;;;;0.70;0.20;;;27.30;1.00;;;;;;4896600;29;20447;-70
2023/09/06 13:06:13;;;;;;;1.10;0.93;;;27.30;6.10;;;;;;4897029;29;20895;-70
2023/09/06 13:08:42;;;;;;;0.70;0.20;;;27.30;3.80;;;;;;4896616;29;20465;-70
2023/09/06 13:11:12;;;;;;;0.70;0.10;;;27.20;1.00;;;;;;4894928;29;20481;-70
2023/09/06 13:13:40;;;;;;;0.70;0.20;;;27.30;1.00;;;;;;4891909;29;20889;-70
2023/09/06 13:16:08;;;;;;;0.70;0.10;;;27.40;1.00;;;;;;4886664;29;20463;-72
2023/09/06 13:18:38;;;;;;;0.70;0.20;;;;;;;;;;4894605;29;20577;-72
2023/09/06 13:21:08;;;;;;;0.70;0.20;;;26.90;1.00;;;;;;4893584;29;20483;-71
2023/09/06 13:23:36;;;;;;;0.70;0.10;;;27.50;5.20;;;;;;4893265;29;20489;-73
2023/09/06 13:26:05;;;;;;;0.80;0.23;;;;;;;;;;4894911;29;20551;-72
2023/09/06 13:28:33;;;;;;;0.70;0.20;;;27.60;1.00;;;;;;4894874;29;20478;-72
2023/09/06 13:31:03;;;;;;;0.70;0.10;;;27.60;1.00;;;;;;4894462;29;21067;-73
2023/09/06 13:33:32;;;;;;;0.70;0.23;;;27.70;1.00;;;;;;4895715;29;20472;-72
2023/09/06 13:36:04;;;;;;;1.10;0.40;;;27.70;1.00;;;;;;4896473;29;20452;-73
2023/09/06 13:38:33;;;;;;;0.70;0.20;;;27.60;1.00;;;;;;4897993;29;20481;-72
2023/09/06 13:41:01;;;;;;;0.70;0.20;;;27.70;1.00;;;;;;4898145;29;20518;-73
2023/09/06 13:43:29;;;;;;;0.70;0.20;;;27.70;1.00;;;;;;4895986;29;20805;-70
2023/09/06 13:45:59;;;;;;;0.70;0.20;;;;;;;;;;4893543;29;20943;-73
2023/09/06 13:48:27;;;;;;;1.33;0.50;;;27.80;1.00;;;;;;4890793;29;20489;-73
2023/09/06 13:50:55;;;;;;;0.70;0.20;;;27.70;1.00;;;;;;4895705;29;20488;-72
2023/09/06 13:53:23;;;;;;;0.70;0.20;;;27.70;1.00;;;;;;4896084;29;20456;-74
2023/09/06 13:55:53;;;;;;;0.80;0.40;;;27.80;1.00;;;;;;4896202;29;20464;-73
2023/09/06 13:58:21;;;;;;;1.53;0.70;;;27.80;1.00;;;;;;4895663;29;20490;-74
2023/09/06 14:00:54;;;;;;;3.37;3.10;;;27.80;1.00;;;;;;4895506;29;20487;-74
2023/09/06 14:03:24;;;;;;;0.70;0.20;;;27.80;1.00;;;;;;4895561;29;20450;-73
2023/09/06 14:05:52;;;;;;;0.70;0.10;;;28.00;1.00;;;;;;4891690;29;20962;-70
2023/09/06 14:08:20;;;;;;;0.70;0.20;;;28.00;1.00;;;;;;4891639;29;20779;-71
2023/09/06 14:10:53;;;;;;;0.70;0.30;;;28.00;1.00;;;;;;4895026;29;20612;-71
2023/09/06 14:13:22;;;;;;;0.70;0.37;;;28.20;1.00;;;;;;4896646;29;20809;-72
2023/09/06 14:15:52;;;;;;;0.70;0.10;;;28.10;1.00;;;;;;4897984;29;20456;-70
2023/09/06 14:18:21;;;;;;;0.70;0.20;;;28.10;1.00;;;;;;4898180;29;20619;-70
2023/09/06 14:20:50;;;;;;;0.80;0.30;;;28.20;1.00;;;;;;4898577;29;20562;-72
2023/09/06 14:23:18;;;;;;;0.70;0.10;;;28.20;1.00;;;;;;4899339;29;20528;-69
2023/09/06 14:25:46;;;;;;;0.70;0.30;;;28.20;1.00;;;;;;4899679;29;20499;-72
2023/09/06 14:28:15;;;;;;;0.80;0.20;;;28.20;1.00;;;;;;4899756;29;20479;-69
2023/09/06 14:30:45;;;;;;;0.70;0.20;;;28.30;1.00;;;;;;4899527;29;20863;-72
2023/09/06 14:33:13;;;;;;;0.70;0.27;;;28.30;1.00;;;;;;4898568;29;20849;-71
2023/09/06 14:35:42;;;;;;;0.70;0.20;;;28.40;1.00;;;;;;4898706;29;20997;-72
2023/09/06 14:38:10;;;;;;;0.70;0.10;;;28.40;1.00;;;;;;4898473;29;20499;-71
2023/09/06 14:40:39;;;;;;;0.70;0.20;;;28.40;1.00;;;;;;4898650;29;20485;-72
2023/09/06 14:43:07;;;;;;;0.70;0.20;;;28.50;1.00;;;;;;4898821;29;20488;-73
2023/09/06 14:45:37;;;;;;;0.70;0.20;;;28.50;1.00;;;;;;4899379;29;20960;-71
2023/09/06 14:48:06;;;;;;;0.70;0.20;;;28.50;1.00;;;;;;4899208;29;20449;-71
2023/09/06 14:50:34;;;;;;;1.07;0.97;;;28.60;1.00;;;;;;4896143;29;20491;-71
2023/09/06 14:53:03;;;;;;;0.70;0.20;;;28.60;1.00;;;;;;4899360;29;20473;-72
2023/09/06 14:55:31;;;;;;;0.70;0.10;;;28.70;1.00;;;;;;4893153;29;20927;-74
2023/09/06 14:58:00;;;;;;;0.70;0.20;;;28.80;1.00;;;;;;4896649;29;20473;-72
2023/09/06 15:00:28;;;;;;;0.80;0.20;;;28.80;1.00;;;;;;4900197;29;20477;-75
2023/09/06 15:02:57;;;;;;;0.70;0.20;;;28.80;1.00;;;;;;4901354;29;20445;-75
2023/09/06 15:05:25;;;;;;;0.70;0.10;;;28.90;1.00;;;;;;4899857;29;20453;-74
2023/09/06 15:07:55;;;;;;;0.70;0.20;;;29.00;1.00;;;;;;4900004;29;20452;-76
2023/09/06 15:10:24;;;;;;;0.80;0.20;;;29.00;1.00;;;;;;4898553;29;20449;-73
2023/09/06 15:12:52;;;;;;;0.70;0.20;;;29.00;1.00;;;;;;4897993;29;20802;-75
2023/09/06 15:15:20;;;;;;;1.00;0.67;;;29.10;1.00;;;;;;4896023;29;21005;-75
2023/09/06 15:17:48;;;;;;;0.90;0.33;;;29.10;1.00;;;;;;4897236;29;20460;-75
2023/09/06 15:20:18;;;;;;;1.10;0.23;;;29.10;1.00;;;;;;4894815;29;20548;-74
2023/09/06 15:22:46;;;;;;;1.20;0.60;;;29.00;1.00;;;;;;4897590;29;20477;-74
2023/09/06 15:25:14;;;;;;;1.73;1.13;;;;;;;;;;4895507;29;20441;-74
2023/09/06 15:27:42;;;;;;;0.70;0.20;;;29.20;1.00;;;;;;4897603;29;20913;-75
2023/09/06 15:30:11;;;;;;;0.70;0.10;;;29.20;1.00;;;;;;4896424;29;20483;-73
2023/09/06 15:32:39;;;;;;;0.80;0.30;;;29.40;1.00;;;;;;4895575;29;20445;-75
2023/09/06 15:35:08;;;;;;;0.70;0.20;;;29.50;1.00;;;;;;4896085;29;20437;-74
2023/09/06 15:37:39;;;;;;;0.90;0.33;;;29.50;1.00;;;;;;4891311;29;20957;-74
2023/09/06 15:40:08;;;;;;;0.70;0.20;;;29.60;1.00;;;;;;4895812;29;20576;-72
2023/09/06 15:42:37;;;;;;;0.80;0.40;;;27.90;1.00;;;;;;4896398;29;21063;-70
2023/09/06 15:45:08;;;;;;;0.70;0.20;;;29.60;1.00;;;;;;4897044;29;20457;-71
2023/09/06 15:47:36;;;;;;;0.70;0.20;;;29.60;1.00;;;;;;4897792;29;20460;-70
2023/09/06 15:50:08;;;;;;;1.27;0.73;;;29.60;1.00;;;;;;4894322;29;20461;-69
2023/09/06 15:52:38;;;;;;;0.70;0.20;;;29.80;1.00;;;;;;4895986;29;20479;-70
2023/09/06 15:55:07;;;;;;;0.80;0.27;;;29.80;1.00;;;;;;4897032;29;20462;-69
2023/09/06 15:57:35;;;;;;;1.67;1.40;;;30.00;1.00;;;;;;4897862;29;20969;-69
2023/09/06 16:00:08;;;;;;;0.70;0.10;;;30.20;1.00;;;;;;4893802;29;20581;-70
2023/09/06 16:02:56;;;;;;;0.70;0.20;;;30.30;1.00;;;;;;4898222;29;21255;-71
2023/09/06 16:05:24;;;;;;;1.53;0.70;;;30.30;1.00;;;;;;4896328;29;20805;-69
2023/09/06 16:07:54;;;;;;;0.70;0.20;;;30.40;1.00;;;;;;4889785;29;20964;-66
2023/09/06 16:10:23;;;;;;;0.70;0.20;;;30.40;1.00;;;;;;4896955;29;20518;-67
2023/09/06 16:12:51;;;;;;;1.33;0.47;;;30.50;1.00;;;;;;4896378;29;20525;-67
2023/09/06 16:15:22;;;;;;;0.70;0.30;;;30.30;1.00;;;;;;4895950;29;20972;-69
2023/09/06 16:17:50;;;;;;;0.70;0.20;;;30.60;1.00;;;;;;4894853;29;21027;-67
2023/09/06 16:20:19;;;;;;;1.30;1.20;;;;;;;;;;4892957;29;20917;-70
2023/09/06 16:22:47;;;;;;;0.70;0.20;;;30.70;1.00;;;;;;4893806;29;20485;-67
2023/09/06 16:25:18;;;;;;;1.43;0.53;;;30.90;1.00;;;;;;4894332;29;20463;-68
2023/09/06 16:27:46;;;;;;;0.70;0.20;;;30.90;1.00;;;;;;4894911;29;20512;-70
2023/09/06 16:30:14;;;;;;;0.70;0.10;;;31.10;1.00;;;;;;4891145;29;20455;-69
2023/09/06 16:32:42;;;;;;;0.70;0.10;;;31.10;1.00;;;;;;4893821;29;20880;-71
2023/09/06 16:35:11;;;;;;;0.70;0.20;;;31.00;1.00;;;;;;4894806;29;20863;-69
2023/09/06 16:37:39;;;;;;;0.70;0.20;;;30.90;1.00;;;;;;4895485;29;20441;-69
2023/09/06 16:40:10;;;;;;;0.70;0.20;;;30.90;1.00;;;;;;4895643;29;20492;-69
2023/09/06 16:42:41;;;;;;;0.70;0.20;;;30.90;1.00;;;;;;4891869;29;20461;-67
2023/09/06 16:45:10;;;;;;;0.70;0.20;;;31.00;1.00;;;;;;4894686;29;20456;-68
2023/09/06 16:47:38;;;;;;;0.70;0.10;;;31.00;1.00;;;;;;4895843;29;20449;-69
2023/09/06 16:50:07;;;;;;;0.70;0.20;;;30.90;1.00;;;;;;4893923;29;20548;-68
2023/09/06 16:52:36;;;;;;;0.70;0.10;;;30.80;1.00;;;;;;4895016;29;20473;-69
2023/09/06 16:55:05;;;;;;;0.70;0.20;;;30.80;1.00;;;;;;4894823;29;20508;-67
2023/09/06 16:57:34;;;;;;;1.63;0.53;;;30.40;1.00;;;;;;4895558;29;20532;-66
2023/09/06 17:00:04;;;;;;;0.80;0.23;;;30.10;1.00;;;;;;4895561;29;20489;-66
2023/09/06 17:02:32;;;;;;;0.70;0.20;;;30.10;1.00;;;;;;4891572;29;20536;-70
2023/09/06 17:05:00;;;;;;;1.30;0.40;;;29.90;1.00;;;;;;4896664;29;20457;-72
2023/09/06 17:07:28;;;;;;;0.70;0.20;;;29.60;1.00;;;;;;4892475;29;20494;-69
2023/09/06 17:09:56;;;;;;;0.70;0.20;;;29.60;1.00;;;;;;4892116;29;20493;-68
2023/09/06 17:12:25;;;;;;;0.70;0.20;;;29.40;1.00;;;;;;4895228;29;20469;-68